sensor_id;sensor_type;location;lat;lon;timestamp;P1;durP1;ratioP1;P2;durP2;ratioP2
80852;SDS011;70270;43.434;28.338;2023-07-16T00:02:10;10.15;;;7.38;;
80852;SDS011;70270;43.434;28.338;2023-07-16T00:04:54;12.40;;;7.03;;
80852;SDS011;70270;43.434;28.338;2023-07-16T00:07:39;11.68;;;7.47;;
80852;SDS011;70270;43.434;28.338;2023-07-16T00:10:23;10.13;;;6.60;;
80852;SDS011;70270;43.434;28.338;2023-07-16T00:13:07;9.93;;;7.55;;
80852;SDS011;70270;43.434;28.338;2023-07-16T00:15:52;10.70;;;7.40;;
80852;SDS011;70270;43.434;28.338;2023-07-16T00:18:36;10.63;;;7.07;;
80852;SDS011;70270;43.434;28.338;2023-07-16T00:21:21;10.88;;;7.55;;
80852;SDS011;70270;43.434;28.338;2023-07-16T00:24:05;12.73;;;7.90;;
80852;SDS011;70270;43.434;28.338;2023-07-16T00:26:50;10.02;;;8.02;;
80852;SDS011;70270;43.434;28.338;2023-07-16T00:29:34;9.90;;;8.52;;
80852;SDS011;70270;43.434;28.338;2023-07-16T00:32:19;11.43;;;7.93;;
80852;SDS011;70270;43.434;28.338;2023-07-16T00:35:03;14.45;;;8.10;;
80852;SDS011;70270;43.434;28.338;2023-07-16T00:37:49;13.25;;;8.70;;
80852;SDS011;70270;43.434;28.338;2023-07-16T00:40:34;11.60;;;8.98;;
80852;SDS011;70270;43.434;28.338;2023-07-16T00:43:18;10.57;;;9.45;;
80852;SDS011;70270;43.434;28.338;2023-07-16T00:46:03;12.18;;;8.43;;
80852;SDS011;70270;43.434;28.338;2023-07-16T00:48:47;13.60;;;8.18;;
80852;SDS011;70270;43.434;28.338;2023-07-16T00:51:33;9.95;;;8.18;;
80852;SDS011;70270;43.434;28.338;2023-07-16T00:54:18;13.05;;;8.10;;
80852;SDS011;70270;43.434;28.338;2023-07-16T00:59:48;10.80;;;9.27;;
80852;SDS011;70270;43.434;28.338;2023-07-16T01:05:18;13.13;;;8.40;;
80852;SDS011;70270;43.434;28.338;2023-07-16T01:08:03;10.63;;;8.30;;
80852;SDS011;70270;43.434;28.338;2023-07-16T01:10:50;11.27;;;8.68;;
80852;SDS011;70270;43.434;28.338;2023-07-16T01:13:35;11.50;;;8.20;;
80852;SDS011;70270;43.434;28.338;2023-07-16T01:16:23;13.10;;;9.02;;
80852;SDS011;70270;43.434;28.338;2023-07-16T01:19:09;13.00;;;8.48;;
80852;SDS011;70270;43.434;28.338;2023-07-16T01:24:53;11.77;;;8.30;;
80852;SDS011;70270;43.434;28.338;2023-07-16T01:30:59;10.90;;;8.40;;
80852;SDS011;70270;43.434;28.338;2023-07-16T01:33:44;10.73;;;8.27;;
80852;SDS011;70270;43.434;28.338;2023-07-16T01:36:31;18.75;;;15.80;;
80852;SDS011;70270;43.434;28.338;2023-07-16T01:39:17;12.75;;;8.02;;
80852;SDS011;70270;43.434;28.338;2023-07-16T01:42:02;13.85;;;8.65;;
80852;SDS011;70270;43.434;28.338;2023-07-16T01:44:47;13.15;;;8.88;;
80852;SDS011;70270;43.434;28.338;2023-07-16T01:47:39;11.38;;;9.02;;
80852;SDS011;70270;43.434;28.338;2023-07-16T01:50:34;13.15;;;8.70;;
80852;SDS011;70270;43.434;28.338;2023-07-16T01:53:19;13.07;;;9.05;;
80852;SDS011;70270;43.434;28.338;2023-07-16T01:56:03;10.23;;;7.65;;
80852;SDS011;70270;43.434;28.338;2023-07-16T01:58:48;11.45;;;8.63;;
80852;SDS011;70270;43.434;28.338;2023-07-16T02:01:32;13.07;;;8.73;;
80852;SDS011;70270;43.434;28.338;2023-07-16T02:04:17;10.43;;;8.82;;
80852;SDS011;70270;43.434;28.338;2023-07-16T02:07:01;11.45;;;8.40;;
80852;SDS011;70270;43.434;28.338;2023-07-16T02:09:46;13.02;;;8.80;;
80852;SDS011;70270;43.434;28.338;2023-07-16T02:12:30;16.48;;;8.82;;
80852;SDS011;70270;43.434;28.338;2023-07-16T02:15:15;15.77;;;9.75;;
80852;SDS011;70270;43.434;28.338;2023-07-16T02:18:00;13.02;;;9.30;;
80852;SDS011;70270;43.434;28.338;2023-07-16T02:20:45;13.32;;;8.52;;
80852;SDS011;70270;43.434;28.338;2023-07-16T02:23:29;15.07;;;10.05;;
80852;SDS011;70270;43.434;28.338;2023-07-16T02:26:14;9.93;;;8.18;;
80852;SDS011;70270;43.434;28.338;2023-07-16T02:29:00;14.40;;;9.55;;
80852;SDS011;70270;43.434;28.338;2023-07-16T02:31:44;15.07;;;9.38;;
80852;SDS011;70270;43.434;28.338;2023-07-16T02:34:30;16.40;;;8.73;;
80852;SDS011;70270;43.434;28.338;2023-07-16T02:37:14;13.77;;;9.48;;
80852;SDS011;70270;43.434;28.338;2023-07-16T02:39:59;15.95;;;9.43;;
80852;SDS011;70270;43.434;28.338;2023-07-16T02:42:43;11.50;;;8.98;;
80852;SDS011;70270;43.434;28.338;2023-07-16T02:45:28;15.73;;;9.10;;
80852;SDS011;70270;43.434;28.338;2023-07-16T02:48:13;16.45;;;8.88;;
80852;SDS011;70270;43.434;28.338;2023-07-16T02:50:57;11.82;;;8.32;;
80852;SDS011;70270;43.434;28.338;2023-07-16T02:53:42;13.32;;;8.77;;
80852;SDS011;70270;43.434;28.338;2023-07-16T02:56:26;19.13;;;9.60;;
80852;SDS011;70270;43.434;28.338;2023-07-16T02:59:11;12.60;;;7.82;;
80852;SDS011;70270;43.434;28.338;2023-07-16T03:01:55;16.45;;;9.05;;
80852;SDS011;70270;43.434;28.338;2023-07-16T03:04:39;17.25;;;9.02;;
80852;SDS011;70270;43.434;28.338;2023-07-16T03:07:25;13.68;;;9.63;;
80852;SDS011;70270;43.434;28.338;2023-07-16T03:10:09;20.17;;;12.63;;
80852;SDS011;70270;43.434;28.338;2023-07-16T03:12:54;19.30;;;9.73;;
80852;SDS011;70270;43.434;28.338;2023-07-16T03:15:39;27.23;;;17.80;;
80852;SDS011;70270;43.434;28.338;2023-07-16T03:18:27;13.60;;;9.55;;
80852;SDS011;70270;43.434;28.338;2023-07-16T03:21:13;12.98;;;7.82;;
80852;SDS011;70270;43.434;28.338;2023-07-16T03:23:58;13.77;;;9.43;;
80852;SDS011;70270;43.434;28.338;2023-07-16T03:26:42;17.27;;;8.82;;
80852;SDS011;70270;43.434;28.338;2023-07-16T03:29:27;14.75;;;8.77;;
80852;SDS011;70270;43.434;28.338;2023-07-16T03:32:11;23.75;;;15.80;;
80852;SDS011;70270;43.434;28.338;2023-07-16T03:34:56;12.55;;;9.18;;
80852;SDS011;70270;43.434;28.338;2023-07-16T03:37:42;15.00;;;8.70;;
80852;SDS011;70270;43.434;28.338;2023-07-16T03:40:27;13.93;;;8.70;;
80852;SDS011;70270;43.434;28.338;2023-07-16T03:43:11;21.25;;;12.10;;
80852;SDS011;70270;43.434;28.338;2023-07-16T03:45:56;19.75;;;10.35;;
80852;SDS011;70270;43.434;28.338;2023-07-16T03:48:40;15.27;;;9.07;;
80852;SDS011;70270;43.434;28.338;2023-07-16T03:51:26;14.77;;;8.68;;
80852;SDS011;70270;43.434;28.338;2023-07-16T03:54:12;15.25;;;8.50;;
80852;SDS011;70270;43.434;28.338;2023-07-16T03:56:56;15.45;;;9.57;;
80852;SDS011;70270;43.434;28.338;2023-07-16T03:59:42;23.23;;;12.05;;
80852;SDS011;70270;43.434;28.338;2023-07-16T04:02:26;23.35;;;13.45;;
80852;SDS011;70270;43.434;28.338;2023-07-16T04:05:11;19.17;;;12.30;;
80852;SDS011;70270;43.434;28.338;2023-07-16T04:07:56;20.13;;;13.77;;
80852;SDS011;70270;43.434;28.338;2023-07-16T04:10:40;12.00;;;8.77;;
80852;SDS011;70270;43.434;28.338;2023-07-16T04:13:25;15.38;;;10.45;;
80852;SDS011;70270;43.434;28.338;2023-07-16T04:16:09;16.13;;;10.90;;
80852;SDS011;70270;43.434;28.338;2023-07-16T04:18:54;17.42;;;9.40;;
80852;SDS011;70270;43.434;28.338;2023-07-16T04:21:38;12.93;;;8.93;;
80852;SDS011;70270;43.434;28.338;2023-07-16T04:24:23;12.48;;;8.45;;
80852;SDS011;70270;43.434;28.338;2023-07-16T04:27:08;11.13;;;7.80;;
80852;SDS011;70270;43.434;28.338;2023-07-16T04:29:53;12.10;;;8.38;;
80852;SDS011;70270;43.434;28.338;2023-07-16T04:32:37;21.02;;;10.68;;
80852;SDS011;70270;43.434;28.338;2023-07-16T04:35:22;11.55;;;7.78;;
80852;SDS011;70270;43.434;28.338;2023-07-16T04:38:06;19.33;;;9.48;;
80852;SDS011;70270;43.434;28.338;2023-07-16T04:40:52;15.40;;;8.52;;
80852;SDS011;70270;43.434;28.338;2023-07-16T04:43:36;14.07;;;8.48;;
80852;SDS011;70270;43.434;28.338;2023-07-16T04:46:21;17.65;;;8.75;;
80852;SDS011;70270;43.434;28.338;2023-07-16T04:49:05;18.30;;;8.15;;
80852;SDS011;70270;43.434;28.338;2023-07-16T04:51:50;10.48;;;7.72;;
80852;SDS011;70270;43.434;28.338;2023-07-16T04:54:36;15.13;;;7.35;;
80852;SDS011;70270;43.434;28.338;2023-07-16T04:57:21;11.85;;;8.00;;
80852;SDS011;70270;43.434;28.338;2023-07-16T05:00:05;19.83;;;9.93;;
80852;SDS011;70270;43.434;28.338;2023-07-16T05:02:50;12.10;;;7.80;;
80852;SDS011;70270;43.434;28.338;2023-07-16T05:05:35;13.02;;;7.75;;
80852;SDS011;70270;43.434;28.338;2023-07-16T05:08:19;11.45;;;7.53;;
80852;SDS011;70270;43.434;28.338;2023-07-16T05:11:03;15.20;;;7.78;;
80852;SDS011;70270;43.434;28.338;2023-07-16T05:13:48;13.13;;;8.02;;
80852;SDS011;70270;43.434;28.338;2023-07-16T05:16:32;14.50;;;8.40;;
80852;SDS011;70270;43.434;28.338;2023-07-16T05:19:17;12.73;;;7.38;;
80852;SDS011;70270;43.434;28.338;2023-07-16T05:22:01;14.65;;;7.75;;
80852;SDS011;70270;43.434;28.338;2023-07-16T05:24:46;13.82;;;8.40;;
80852;SDS011;70270;43.434;28.338;2023-07-16T05:27:31;13.05;;;7.80;;
80852;SDS011;70270;43.434;28.338;2023-07-16T05:30:15;11.25;;;7.35;;
80852;SDS011;70270;43.434;28.338;2023-07-16T05:33:00;14.27;;;7.85;;
80852;SDS011;70270;43.434;28.338;2023-07-16T05:35:48;11.38;;;6.95;;
80852;SDS011;70270;43.434;28.338;2023-07-16T05:38:34;13.30;;;7.28;;
80852;SDS011;70270;43.434;28.338;2023-07-16T05:41:18;10.10;;;7.22;;
80852;SDS011;70270;43.434;28.338;2023-07-16T05:44:03;9.70;;;6.75;;
80852;SDS011;70270;43.434;28.338;2023-07-16T05:46:48;10.60;;;7.47;;
80852;SDS011;70270;43.434;28.338;2023-07-16T05:49:32;14.35;;;6.88;;
80852;SDS011;70270;43.434;28.338;2023-07-16T05:52:17;11.43;;;7.75;;
80852;SDS011;70270;43.434;28.338;2023-07-16T05:55:02;11.25;;;7.43;;
80852;SDS011;70270;43.434;28.338;2023-07-16T05:57:46;14.48;;;9.20;;
80852;SDS011;70270;43.434;28.338;2023-07-16T06:00:31;25.52;;;13.65;;
80852;SDS011;70270;43.434;28.338;2023-07-16T06:03:15;23.45;;;10.00;;
80852;SDS011;70270;43.434;28.338;2023-07-16T06:06:01;29.65;;;13.93;;
80852;SDS011;70270;43.434;28.338;2023-07-16T06:08:45;18.90;;;10.27;;
80852;SDS011;70270;43.434;28.338;2023-07-16T06:11:29;23.55;;;10.20;;
80852;SDS011;70270;43.434;28.338;2023-07-16T06:14:14;16.92;;;6.82;;
80852;SDS011;70270;43.434;28.338;2023-07-16T06:16:59;15.68;;;8.57;;
80852;SDS011;70270;43.434;28.338;2023-07-16T06:19:44;15.93;;;8.45;;
80852;SDS011;70270;43.434;28.338;2023-07-16T06:22:28;14.48;;;7.50;;
80852;SDS011;70270;43.434;28.338;2023-07-16T06:25:12;16.17;;;8.20;;
80852;SDS011;70270;43.434;28.338;2023-07-16T06:27:57;16.70;;;8.50;;
80852;SDS011;70270;43.434;28.338;2023-07-16T06:30:41;13.15;;;7.10;;
80852;SDS011;70270;43.434;28.338;2023-07-16T06:33:26;17.05;;;7.85;;
80852;SDS011;70270;43.434;28.338;2023-07-16T06:36:12;13.23;;;6.55;;
80852;SDS011;70270;43.434;28.338;2023-07-16T06:38:57;12.52;;;7.60;;
80852;SDS011;70270;43.434;28.338;2023-07-16T06:41:41;10.57;;;5.88;;
80852;SDS011;70270;43.434;28.338;2023-07-16T06:44:26;19.30;;;6.30;;
80852;SDS011;70270;43.434;28.338;2023-07-16T06:47:10;10.35;;;6.50;;
80852;SDS011;70270;43.434;28.338;2023-07-16T06:49:55;12.77;;;6.57;;
80852;SDS011;70270;43.434;28.338;2023-07-16T06:52:39;11.68;;;7.00;;
80852;SDS011;70270;43.434;28.338;2023-07-16T06:55:23;25.63;;;12.50;;
80852;SDS011;70270;43.434;28.338;2023-07-16T06:58:13;14.13;;;7.05;;
80852;SDS011;70270;43.434;28.338;2023-07-16T07:00:58;14.43;;;7.10;;
80852;SDS011;70270;43.434;28.338;2023-07-16T07:03:42;11.10;;;7.40;;
80852;SDS011;70270;43.434;28.338;2023-07-16T07:06:27;13.27;;;7.53;;
80852;SDS011;70270;43.434;28.338;2023-07-16T07:09:11;9.82;;;6.22;;
80852;SDS011;70270;43.434;28.338;2023-07-16T07:11:56;11.27;;;6.97;;
80852;SDS011;70270;43.434;28.338;2023-07-16T07:14:46;11.68;;;6.82;;
80852;SDS011;70270;43.434;28.338;2023-07-16T07:17:32;10.80;;;6.60;;
80852;SDS011;70270;43.434;28.338;2023-07-16T07:20:16;17.63;;;7.40;;
80852;SDS011;70270;43.434;28.338;2023-07-16T07:23:01;10.02;;;6.55;;
80852;SDS011;70270;43.434;28.338;2023-07-16T07:25:50;7.32;;;6.13;;
80852;SDS011;70270;43.434;28.338;2023-07-16T07:28:35;9.55;;;6.40;;
80852;SDS011;70270;43.434;28.338;2023-07-16T07:31:20;8.57;;;5.97;;
80852;SDS011;70270;43.434;28.338;2023-07-16T07:34:04;9.13;;;6.18;;
80852;SDS011;70270;43.434;28.338;2023-07-16T07:36:49;11.57;;;6.57;;
80852;SDS011;70270;43.434;28.338;2023-07-16T07:39:33;9.35;;;5.93;;
80852;SDS011;70270;43.434;28.338;2023-07-16T07:42:18;11.50;;;5.78;;
80852;SDS011;70270;43.434;28.338;2023-07-16T07:45:02;10.60;;;6.70;;
80852;SDS011;70270;43.434;28.338;2023-07-16T07:47:47;10.63;;;6.13;;
80852;SDS011;70270;43.434;28.338;2023-07-16T07:50:32;8.45;;;6.50;;
80852;SDS011;70270;43.434;28.338;2023-07-16T07:53:17;9.10;;;5.80;;
80852;SDS011;70270;43.434;28.338;2023-07-16T07:56:04;8.02;;;5.85;;
80852;SDS011;70270;43.434;28.338;2023-07-16T07:58:48;9.70;;;5.97;;
80852;SDS011;70270;43.434;28.338;2023-07-16T08:01:32;11.68;;;6.10;;
80852;SDS011;70270;43.434;28.338;2023-07-16T08:04:17;11.52;;;6.53;;
80852;SDS011;70270;43.434;28.338;2023-07-16T08:07:01;9.45;;;6.07;;
80852;SDS011;70270;43.434;28.338;2023-07-16T08:09:46;10.45;;;5.57;;
80852;SDS011;70270;43.434;28.338;2023-07-16T08:12:31;9.88;;;6.03;;
80852;SDS011;70270;43.434;28.338;2023-07-16T08:15:15;7.72;;;5.85;;
80852;SDS011;70270;43.434;28.338;2023-07-16T08:17:59;6.80;;;5.13;;
80852;SDS011;70270;43.434;28.338;2023-07-16T08:20:44;8.48;;;5.03;;
80852;SDS011;70270;43.434;28.338;2023-07-16T08:23:30;7.90;;;5.50;;
80852;SDS011;70270;43.434;28.338;2023-07-16T08:26:15;8.13;;;5.38;;
80852;SDS011;70270;43.434;28.338;2023-07-16T08:29:00;8.48;;;5.13;;
80852;SDS011;70270;43.434;28.338;2023-07-16T08:31:45;6.93;;;5.63;;
80852;SDS011;70270;43.434;28.338;2023-07-16T08:34:29;8.38;;;4.97;;
80852;SDS011;70270;43.434;28.338;2023-07-16T08:37:14;8.38;;;5.05;;
80852;SDS011;70270;43.434;28.338;2023-07-16T08:39:58;8.82;;;4.90;;
80852;SDS011;70270;43.434;28.338;2023-07-16T08:42:44;8.23;;;5.30;;
80852;SDS011;70270;43.434;28.338;2023-07-16T08:45:29;8.85;;;5.07;;
80852;SDS011;70270;43.434;28.338;2023-07-16T08:48:14;7.93;;;5.38;;
80852;SDS011;70270;43.434;28.338;2023-07-16T08:51:01;9.98;;;5.47;;
80852;SDS011;70270;43.434;28.338;2023-07-16T08:53:47;5.85;;;4.85;;
80852;SDS011;70270;43.434;28.338;2023-07-16T08:56:31;9.05;;;4.90;;
80852;SDS011;70270;43.434;28.338;2023-07-16T08:59:16;7.82;;;4.95;;
80852;SDS011;70270;43.434;28.338;2023-07-16T09:04:47;7.35;;;4.75;;
80852;SDS011;70270;43.434;28.338;2023-07-16T09:07:32;10.27;;;4.72;;
80852;SDS011;70270;43.434;28.338;2023-07-16T09:10:17;7.70;;;5.50;;
80852;SDS011;70270;43.434;28.338;2023-07-16T09:13:02;8.15;;;5.40;;
80852;SDS011;70270;43.434;28.338;2023-07-16T09:15:56;9.20;;;5.22;;
80852;SDS011;70270;43.434;28.338;2023-07-16T09:18:42;9.85;;;5.05;;
80852;SDS011;70270;43.434;28.338;2023-07-16T09:21:26;9.82;;;5.75;;
80852;SDS011;70270;43.434;28.338;2023-07-16T09:24:13;6.95;;;4.88;;
80852;SDS011;70270;43.434;28.338;2023-07-16T09:26:58;9.75;;;5.20;;
80852;SDS011;70270;43.434;28.338;2023-07-16T09:29:45;9.10;;;5.88;;
80852;SDS011;70270;43.434;28.338;2023-07-16T09:32:37;9.35;;;5.70;;
80852;SDS011;70270;43.434;28.338;2023-07-16T09:35:24;8.13;;;5.18;;
80852;SDS011;70270;43.434;28.338;2023-07-16T09:38:10;9.40;;;6.22;;
80852;SDS011;70270;43.434;28.338;2023-07-16T09:40:55;9.70;;;5.95;;
80852;SDS011;70270;43.434;28.338;2023-07-16T09:43:40;7.47;;;5.40;;
80852;SDS011;70270;43.434;28.338;2023-07-16T09:46:25;8.27;;;5.53;;
80852;SDS011;70270;43.434;28.338;2023-07-16T09:49:10;8.88;;;5.25;;
80852;SDS011;70270;43.434;28.338;2023-07-16T09:51:56;9.73;;;5.55;;
80852;SDS011;70270;43.434;28.338;2023-07-16T09:54:41;11.00;;;5.47;;
80852;SDS011;70270;43.434;28.338;2023-07-16T09:57:28;8.90;;;6.07;;
80852;SDS011;70270;43.434;28.338;2023-07-16T10:00:16;9.52;;;6.05;;
80852;SDS011;70270;43.434;28.338;2023-07-16T10:03:02;13.20;;;6.53;;
80852;SDS011;70270;43.434;28.338;2023-07-16T10:05:47;10.25;;;6.40;;
80852;SDS011;70270;43.434;28.338;2023-07-16T10:08:33;8.50;;;5.72;;
80852;SDS011;70270;43.434;28.338;2023-07-16T10:11:19;8.32;;;5.82;;
80852;SDS011;70270;43.434;28.338;2023-07-16T10:14:03;10.88;;;6.07;;
80852;SDS011;70270;43.434;28.338;2023-07-16T10:16:47;14.38;;;5.38;;
80852;SDS011;70270;43.434;28.338;2023-07-16T10:20:17;19.58;;;7.15;;
80852;SDS011;70270;43.434;28.338;2023-07-16T10:22:42;8.68;;;5.43;;
80852;SDS011;70270;43.434;28.338;2023-07-16T10:25:29;8.45;;;5.45;;
80852;SDS011;70270;43.434;28.338;2023-07-16T10:28:14;10.25;;;5.60;;
80852;SDS011;70270;43.434;28.338;2023-07-16T10:30:58;8.00;;;5.63;;
80852;SDS011;70270;43.434;28.338;2023-07-16T10:33:43;10.32;;;5.82;;
80852;SDS011;70270;43.434;28.338;2023-07-16T10:36:27;9.25;;;6.35;;
80852;SDS011;70270;43.434;28.338;2023-07-16T10:39:12;8.82;;;5.07;;
80852;SDS011;70270;43.434;28.338;2023-07-16T10:41:59;11.13;;;5.82;;
80852;SDS011;70270;43.434;28.338;2023-07-16T10:44:43;9.20;;;5.38;;
80852;SDS011;70270;43.434;28.338;2023-07-16T10:47:31;10.70;;;6.47;;
80852;SDS011;70270;43.434;28.338;2023-07-16T10:50:18;10.25;;;5.00;;
80852;SDS011;70270;43.434;28.338;2023-07-16T10:53:04;9.65;;;5.72;;
80852;SDS011;70270;43.434;28.338;2023-07-16T10:55:48;8.32;;;5.53;;
80852;SDS011;70270;43.434;28.338;2023-07-16T10:58:35;7.28;;;4.25;;
80852;SDS011;70270;43.434;28.338;2023-07-16T11:01:21;8.02;;;5.32;;
80852;SDS011;70270;43.434;28.338;2023-07-16T11:04:08;8.90;;;5.40;;
80852;SDS011;70270;43.434;28.338;2023-07-16T11:06:53;9.50;;;5.55;;
80852;SDS011;70270;43.434;28.338;2023-07-16T11:09:41;8.48;;;6.13;;
80852;SDS011;70270;43.434;28.338;2023-07-16T11:12:31;7.78;;;5.53;;
80852;SDS011;70270;43.434;28.338;2023-07-16T11:15:16;7.53;;;5.35;;
80852;SDS011;70270;43.434;28.338;2023-07-16T11:18:01;16.33;;;5.75;;
80852;SDS011;70270;43.434;28.338;2023-07-16T11:20:46;8.93;;;5.32;;
80852;SDS011;70270;43.434;28.338;2023-07-16T11:23:35;7.70;;;5.72;;
80852;SDS011;70270;43.434;28.338;2023-07-16T11:26:20;10.60;;;5.18;;
80852;SDS011;70270;43.434;28.338;2023-07-16T11:29:14;8.50;;;5.45;;
80852;SDS011;70270;43.434;28.338;2023-07-16T11:31:58;9.65;;;4.95;;
80852;SDS011;70270;43.434;28.338;2023-07-16T11:34:55;8.70;;;5.15;;
80852;SDS011;70270;43.434;28.338;2023-07-16T11:37:41;9.95;;;5.68;;
80852;SDS011;70270;43.434;28.338;2023-07-16T11:40:25;9.20;;;5.40;;
80852;SDS011;70270;43.434;28.338;2023-07-16T11:43:10;8.77;;;5.60;;
80852;SDS011;70270;43.434;28.338;2023-07-16T11:45:55;9.88;;;5.07;;
80852;SDS011;70270;43.434;28.338;2023-07-16T11:48:39;10.52;;;5.75;;
80852;SDS011;70270;43.434;28.338;2023-07-16T11:51:24;7.32;;;6.03;;
80852;SDS011;70270;43.434;28.338;2023-07-16T11:54:09;11.35;;;5.70;;
80852;SDS011;70270;43.434;28.338;2023-07-16T11:56:54;8.00;;;5.78;;
80852;SDS011;70270;43.434;28.338;2023-07-16T11:59:38;9.73;;;5.55;;
80852;SDS011;70270;43.434;28.338;2023-07-16T12:02:23;9.88;;;6.40;;
80852;SDS011;70270;43.434;28.338;2023-07-16T12:05:09;8.82;;;5.28;;
80852;SDS011;70270;43.434;28.338;2023-07-16T12:07:53;9.65;;;5.78;;
80852;SDS011;70270;43.434;28.338;2023-07-16T12:10:38;10.27;;;6.20;;
80852;SDS011;70270;43.434;28.338;2023-07-16T12:13:23;8.95;;;5.65;;
80852;SDS011;70270;43.434;28.338;2023-07-16T12:16:07;6.97;;;5.10;;
80852;SDS011;70270;43.434;28.338;2023-07-16T12:18:52;7.70;;;4.82;;
80852;SDS011;70270;43.434;28.338;2023-07-16T12:21:37;7.55;;;4.95;;
80852;SDS011;70270;43.434;28.338;2023-07-16T12:24:22;8.32;;;5.45;;
80852;SDS011;70270;43.434;28.338;2023-07-16T12:27:06;9.52;;;5.47;;
80852;SDS011;70270;43.434;28.338;2023-07-16T12:29:51;11.05;;;5.85;;
80852;SDS011;70270;43.434;28.338;2023-07-16T12:32:36;9.32;;;5.57;;
80852;SDS011;70270;43.434;28.338;2023-07-16T12:35:21;7.78;;;5.22;;
80852;SDS011;70270;43.434;28.338;2023-07-16T12:38:05;11.20;;;5.65;;
80852;SDS011;70270;43.434;28.338;2023-07-16T12:40:50;8.63;;;4.60;;
80852;SDS011;70270;43.434;28.338;2023-07-16T12:43:35;8.63;;;4.93;;
80852;SDS011;70270;43.434;28.338;2023-07-16T12:46:20;9.57;;;5.07;;
80852;SDS011;70270;43.434;28.338;2023-07-16T12:49:04;7.50;;;4.28;;
80852;SDS011;70270;43.434;28.338;2023-07-16T12:51:49;7.53;;;4.95;;
80852;SDS011;70270;43.434;28.338;2023-07-16T12:54:33;6.97;;;4.78;;
80852;SDS011;70270;43.434;28.338;2023-07-16T12:57:18;7.93;;;5.15;;
80852;SDS011;70270;43.434;28.338;2023-07-16T13:00:02;9.88;;;5.22;;
80852;SDS011;70270;43.434;28.338;2023-07-16T13:02:49;7.70;;;5.53;;
80852;SDS011;70270;43.434;28.338;2023-07-16T13:05:33;9.40;;;5.30;;
80852;SDS011;70270;43.434;28.338;2023-07-16T13:08:18;10.90;;;5.05;;
80852;SDS011;70270;43.434;28.338;2023-07-16T13:11:02;10.20;;;6.30;;
80852;SDS011;70270;43.434;28.338;2023-07-16T13:13:47;8.23;;;5.55;;
80852;SDS011;70270;43.434;28.338;2023-07-16T13:16:31;7.65;;;5.10;;
80852;SDS011;70270;43.434;28.338;2023-07-16T13:19:16;9.63;;;5.53;;
80852;SDS011;70270;43.434;28.338;2023-07-16T13:22:00;11.75;;;5.53;;
80852;SDS011;70270;43.434;28.338;2023-07-16T13:24:45;9.18;;;5.80;;
80852;SDS011;70270;43.434;28.338;2023-07-16T13:27:29;9.20;;;5.63;;
80852;SDS011;70270;43.434;28.338;2023-07-16T13:30:14;11.38;;;5.70;;
80852;SDS011;70270;43.434;28.338;2023-07-16T13:32:59;7.38;;;5.60;;
80852;SDS011;70270;43.434;28.338;2023-07-16T13:35:44;10.35;;;5.60;;
80852;SDS011;70270;43.434;28.338;2023-07-16T13:38:30;12.10;;;5.15;;
80852;SDS011;70270;43.434;28.338;2023-07-16T13:41:14;10.18;;;6.03;;
80852;SDS011;70270;43.434;28.338;2023-07-16T13:43:59;11.32;;;5.97;;
80852;SDS011;70270;43.434;28.338;2023-07-16T13:46:43;8.40;;;5.18;;
80852;SDS011;70270;43.434;28.338;2023-07-16T13:49:28;10.50;;;5.95;;
80852;SDS011;70270;43.434;28.338;2023-07-16T13:52:12;9.27;;;5.30;;
80852;SDS011;70270;43.434;28.338;2023-07-16T13:54:57;10.68;;;5.28;;
80852;SDS011;70270;43.434;28.338;2023-07-16T13:57:41;7.47;;;4.90;;
80852;SDS011;70270;43.434;28.338;2023-07-16T14:00:27;8.10;;;4.85;;
80852;SDS011;70270;43.434;28.338;2023-07-16T14:03:11;8.30;;;4.72;;
80852;SDS011;70270;43.434;28.338;2023-07-16T14:05:55;9.55;;;4.72;;
80852;SDS011;70270;43.434;28.338;2023-07-16T14:08:40;8.13;;;4.65;;
80852;SDS011;70270;43.434;28.338;2023-07-16T14:11:25;9.32;;;4.72;;
80852;SDS011;70270;43.434;28.338;2023-07-16T14:14:09;8.13;;;5.70;;
80852;SDS011;70270;43.434;28.338;2023-07-16T14:16:54;10.52;;;6.20;;
80852;SDS011;70270;43.434;28.338;2023-07-16T14:22:25;10.55;;;5.53;;
80852;SDS011;70270;43.434;28.338;2023-07-16T14:25:11;11.65;;;5.00;;
80852;SDS011;70270;43.434;28.338;2023-07-16T14:27:56;10.95;;;5.13;;
80852;SDS011;70270;43.434;28.338;2023-07-16T14:30:40;7.32;;;5.35;;
80852;SDS011;70270;43.434;28.338;2023-07-16T14:33:25;7.65;;;4.80;;
80852;SDS011;70270;43.434;28.338;2023-07-16T14:36:10;8.55;;;4.90;;
80852;SDS011;70270;43.434;28.338;2023-07-16T14:38:55;7.30;;;4.88;;
80852;SDS011;70270;43.434;28.338;2023-07-16T14:41:42;7.80;;;5.00;;
80852;SDS011;70270;43.434;28.338;2023-07-16T14:44:27;6.85;;;4.90;;
80852;SDS011;70270;43.434;28.338;2023-07-16T14:47:12;9.65;;;5.32;;
80852;SDS011;70270;43.434;28.338;2023-07-16T14:49:56;7.32;;;4.30;;
80852;SDS011;70270;43.434;28.338;2023-07-16T14:52:41;8.60;;;4.45;;
80852;SDS011;70270;43.434;28.338;2023-07-16T14:55:26;6.32;;;4.50;;
80852;SDS011;70270;43.434;28.338;2023-07-16T14:58:10;6.35;;;4.32;;
80852;SDS011;70270;43.434;28.338;2023-07-16T15:00:55;8.32;;;4.55;;
80852;SDS011;70270;43.434;28.338;2023-07-16T15:03:43;16.90;;;4.97;;
80852;SDS011;70270;43.434;28.338;2023-07-16T15:06:27;7.28;;;5.68;;
80852;SDS011;70270;43.434;28.338;2023-07-16T15:09:12;8.60;;;5.40;;
80852;SDS011;70270;43.434;28.338;2023-07-16T15:11:57;9.18;;;5.10;;
80852;SDS011;70270;43.434;28.338;2023-07-16T15:14:42;11.55;;;5.45;;
80852;SDS011;70270;43.434;28.338;2023-07-16T15:17:27;11.57;;;5.47;;
80852;SDS011;70270;43.434;28.338;2023-07-16T15:20:11;7.45;;;5.05;;
80852;SDS011;70270;43.434;28.338;2023-07-16T15:22:56;8.40;;;4.65;;
80852;SDS011;70270;43.434;28.338;2023-07-16T15:25:41;6.47;;;4.85;;
80852;SDS011;70270;43.434;28.338;2023-07-16T15:31:11;9.70;;;5.13;;
80852;SDS011;70270;43.434;28.338;2023-07-16T15:33:58;6.85;;;5.40;;
80852;SDS011;70270;43.434;28.338;2023-07-16T15:36:42;7.18;;;5.28;;
80852;SDS011;70270;43.434;28.338;2023-07-16T15:39:27;13.35;;;6.78;;
80852;SDS011;70270;43.434;28.338;2023-07-16T15:42:11;30.15;;;14.10;;
80852;SDS011;70270;43.434;28.338;2023-07-16T15:44:56;19.27;;;9.27;;
80852;SDS011;70270;43.434;28.338;2023-07-16T15:47:44;28.05;;;13.88;;
80852;SDS011;70270;43.434;28.338;2023-07-16T15:50:29;32.08;;;18.00;;
80852;SDS011;70270;43.434;28.338;2023-07-16T15:53:14;33.63;;;20.05;;
80852;SDS011;70270;43.434;28.338;2023-07-16T15:55:58;9.85;;;6.57;;
80852;SDS011;70270;43.434;28.338;2023-07-16T15:58:43;11.80;;;6.65;;
80852;SDS011;70270;43.434;28.338;2023-07-16T16:01:27;8.63;;;5.70;;
80852;SDS011;70270;43.434;28.338;2023-07-16T16:04:12;8.35;;;6.15;;
80852;SDS011;70270;43.434;28.338;2023-07-16T16:06:58;8.45;;;5.53;;
80852;SDS011;70270;43.434;28.338;2023-07-16T16:09:42;9.70;;;5.88;;
80852;SDS011;70270;43.434;28.338;2023-07-16T16:12:27;11.32;;;5.50;;
80852;SDS011;70270;43.434;28.338;2023-07-16T16:15:11;9.07;;;5.78;;
80852;SDS011;70270;43.434;28.338;2023-07-16T16:17:56;10.93;;;5.78;;
80852;SDS011;70270;43.434;28.338;2023-07-16T16:20:41;12.13;;;6.05;;
80852;SDS011;70270;43.434;28.338;2023-07-16T16:23:27;12.65;;;6.95;;
80852;SDS011;70270;43.434;28.338;2023-07-16T16:26:11;11.65;;;5.47;;
80852;SDS011;70270;43.434;28.338;2023-07-16T16:28:56;8.98;;;6.07;;
80852;SDS011;70270;43.434;28.338;2023-07-16T16:31:40;10.80;;;6.13;;